createdAt,value
2023-04-07T00:01:30.251Z,10.40
2023-04-07T00:03:57.314Z,9.27
2023-04-07T00:06:24.969Z,9.70
2023-04-07T00:08:51.584Z,10.30
2023-04-07T00:11:18.084Z,10.47
2023-04-07T00:13:44.651Z,10.97
2023-04-07T00:16:11.463Z,12.10
2023-04-07T00:18:38.015Z,10.97
2023-04-07T00:21:04.687Z,9.73
2023-04-07T00:23:31.820Z,10.20
2023-04-07T00:25:58.506Z,10.37
2023-04-07T00:28:26.323Z,10.20
2023-04-07T00:30:52.970Z,10.90
2023-04-07T00:33:19.702Z,10.63
2023-04-07T00:35:47.544Z,11.00
2023-04-07T00:38:14.300Z,12.33
2023-04-07T00:40:41.183Z,11.43
2023-04-07T00:43:08.698Z,12.07
2023-04-07T00:45:36.108Z,10.80
2023-04-07T00:48:02.771Z,10.63
2023-04-07T00:50:29.486Z,10.77
2023-04-07T00:52:57.166Z,10.60
2023-04-07T00:55:23.811Z,10.60
2023-04-07T00:57:51.906Z,10.73
2023-04-07T01:00:18.994Z,10.50
2023-04-07T01:02:48.563Z,11.30
2023-04-07T01:05:16.807Z,10.97
2023-04-07T01:07:45.934Z,9.93
2023-04-07T01:10:14.285Z,10.50
2023-04-07T01:12:52.225Z,10.60
2023-04-07T01:15:21.786Z,10.27
2023-04-07T01:17:56.040Z,9.80
2023-04-07T01:20:23.532Z,9.77
2023-04-07T01:22:56.570Z,9.27
2023-04-07T01:25:30.536Z,9.90
2023-04-07T01:28:06.283Z,9.17
2023-04-07T01:30:33.448Z,9.43
2023-04-07T01:33:00.483Z,9.63
2023-04-07T01:35:28.194Z,9.40
2023-04-07T01:37:54.751Z,9.97
2023-04-07T01:40:21.306Z,8.67
2023-04-07T02:18:45.035Z,10.37
2023-04-07T02:21:13.035Z,11.23
2023-04-07T02:23:39.577Z,10.20
2023-04-07T02:26:06.407Z,10.50
2023-04-07T02:28:32.975Z,11.17
2023-04-07T02:30:59.597Z,13.80
2023-04-07T02:33:26.302Z,11.20
2023-04-07T02:35:52.884Z,10.33
2023-04-07T02:38:21.109Z,11.80
2023-04-07T02:40:50.302Z,11.17
2023-04-07T02:43:17.747Z,10.20
2023-04-07T02:45:44.382Z,9.67
2023-04-07T02:48:11.085Z,9.87
2023-04-07T02:50:38.902Z,11.03
2023-04-07T02:53:05.431Z,10.63
2023-04-07T02:55:32.055Z,11.43
2023-04-07T02:57:58.607Z,11.57
2023-04-07T03:00:37.272Z,10.73
2023-04-07T03:03:09.783Z,11.90
2023-04-07T03:05:39.243Z,11.93
2023-04-07T03:08:10.138Z,12.47
2023-04-07T03:10:38.988Z,12.27
2023-04-07T03:13:09.263Z,11.07
2023-04-07T03:15:37.010Z,12.37
2023-04-07T03:18:03.728Z,12.77
2023-04-07T03:20:31.125Z,13.20
2023-04-07T03:23:03.056Z,13.93
2023-04-07T03:25:30.582Z,13.60
2023-04-07T03:27:57.791Z,12.87
2023-04-07T03:30:28.754Z,13.00
2023-04-07T03:32:56.284Z,13.97
2023-04-07T03:35:23.360Z,12.87
2023-04-07T03:37:49.998Z,13.37
2023-04-07T03:40:18.350Z,13.23
2023-04-07T03:42:46.602Z,14.40
2023-04-07T03:45:14.005Z,14.40
2023-04-07T03:47:45.831Z,13.90
2023-04-07T03:50:12.801Z,13.50
2023-04-07T03:52:59.934Z,13.40
2023-04-07T03:55:30.058Z,12.77
2023-04-07T03:58:01.699Z,13.17
2023-04-07T04:00:33.489Z,12.83
2023-04-07T04:03:06.930Z,13.00
2023-04-07T04:05:38.322Z,12.60
2023-04-07T04:08:06.873Z,12.50
2023-04-07T04:10:36.641Z,12.13
2023-04-07T04:13:06.838Z,10.97
2023-04-07T04:15:34.517Z,11.63
2023-04-07T04:18:03.651Z,12.73
2023-04-07T04:20:31.577Z,12.27
2023-04-07T04:22:58.221Z,12.10
2023-04-07T04:25:25.841Z,13.43
2023-04-07T04:27:56.138Z,13.07
2023-04-07T04:30:25.835Z,11.97
2023-04-07T04:32:57.289Z,12.00
2023-04-07T04:35:33.454Z,11.40
2023-04-07T04:38:09.837Z,12.00
2023-04-07T04:40:39.942Z,11.87
2023-04-07T04:43:10.736Z,11.70
2023-04-07T04:45:41.744Z,12.23
2023-04-07T04:48:12.336Z,12.17
2023-04-07T04:50:42.428Z,10.70
2023-04-07T04:53:12.664Z,11.17
2023-04-07T04:55:52.248Z,10.57
2023-04-07T04:58:26.898Z,9.67
2023-04-07T05:01:00.626Z,9.97
2023-04-07T05:03:37.656Z,10.07
2023-04-07T05:06:12.060Z,9.83
2023-04-07T05:08:42.648Z,9.53
2023-04-07T05:11:09.958Z,10.00
2023-04-07T05:13:38.310Z,9.47
2023-04-07T05:16:05.622Z,9.70
2023-04-07T05:18:34.559Z,10.00
2023-04-07T05:21:04.951Z,9.83
2023-04-07T05:23:35.863Z,10.70
2023-04-07T05:26:03.714Z,11.33
2023-04-07T05:28:31.250Z,10.40
2023-04-07T05:31:03.814Z,10.33
2023-04-07T05:33:34.342Z,10.17
2023-04-07T05:36:03.136Z,9.37
2023-04-07T05:38:33.164Z,10.77
2023-04-07T05:41:09.103Z,10.60
2023-04-07T05:43:36.873Z,10.40
2023-04-07T05:46:05.391Z,10.37
2023-04-07T05:48:36.002Z,11.00
2023-04-07T05:51:03.998Z,9.97
2023-04-07T05:53:31.058Z,10.90
2023-04-07T05:55:58.301Z,10.03
2023-04-07T05:58:39.539Z,10.87
2023-04-07T06:01:08.760Z,10.97
2023-04-07T06:03:35.666Z,10.43
2023-04-07T06:06:28.178Z,10.53
2023-04-07T06:08:55.786Z,10.30
2023-04-07T06:11:23.911Z,11.13
2023-04-07T06:13:52.289Z,10.97
2023-04-07T06:16:19.806Z,10.93
2023-04-07T06:18:47.002Z,11.40
2023-04-07T06:21:14.069Z,11.83
2023-04-07T06:23:40.808Z,14.13
2023-04-07T06:26:10.692Z,12.73
2023-04-07T06:28:38.427Z,11.53
2023-04-07T06:31:07.590Z,11.97
2023-04-07T06:33:36.285Z,13.53
2023-04-07T06:36:03.189Z,11.70
2023-04-07T06:38:29.898Z,11.33
2023-04-07T06:40:56.667Z,11.33
2023-04-07T06:43:23.378Z,11.70
2023-04-07T06:46:01.282Z,10.53
2023-04-07T06:48:28.040Z,9.83
2023-04-07T06:50:57.017Z,11.23
2023-04-07T06:53:26.716Z,10.60
2023-04-07T06:56:02.703Z,10.03
2023-04-07T06:58:29.377Z,10.60
2023-04-07T07:00:56.197Z,9.87
2023-04-07T07:03:22.950Z,9.00
2023-04-07T07:05:50.472Z,10.07
2023-04-07T07:08:17.242Z,9.80
2023-04-07T07:10:43.981Z,9.60
2023-04-07T07:13:11.081Z,9.13
2023-04-07T07:15:37.981Z,9.70
2023-04-07T07:18:04.894Z,9.97
2023-04-07T07:20:32.226Z,10.40
2023-04-07T07:23:00.130Z,13.57
2023-04-07T07:25:27.225Z,12.43
2023-04-07T07:27:54.369Z,10.90
2023-04-07T07:30:21.400Z,11.57
2023-04-07T07:32:48.161Z,11.33
2023-04-07T07:35:15.204Z,13.13
2023-04-07T07:37:41.955Z,13.83
2023-04-07T07:40:08.670Z,13.27
2023-04-07T07:42:35.765Z,13.97
2023-04-07T07:45:02.478Z,12.00
2023-04-07T07:47:30.720Z,12.53
2023-04-07T07:49:57.571Z,12.97
2023-04-07T07:52:24.282Z,14.10
2023-04-07T07:54:51.326Z,13.50
2023-04-07T07:57:18.389Z,12.80
2023-04-07T08:13:58.335Z,13.53
2023-04-07T08:16:27.113Z,12.70
2023-04-07T08:19:38.414Z,13.03
2023-04-07T08:22:06.321Z,13.70
2023-04-07T08:24:32.991Z,13.50
2023-04-07T08:27:01.623Z,13.53
2023-04-07T08:29:32.715Z,13.83
2023-04-07T08:31:59.693Z,11.83
2023-04-07T08:34:26.636Z,11.93
2023-04-07T08:36:54.702Z,11.13
2023-04-07T08:39:22.832Z,11.80
2023-04-07T08:41:50.328Z,12.90
2023-04-07T08:44:17.153Z,11.50
2023-04-07T08:46:49.407Z,11.37
2023-04-07T08:49:16.248Z,13.50
2023-04-07T08:51:47.707Z,13.27
2023-04-07T08:54:16.416Z,11.93
2023-04-07T08:56:43.311Z,12.00
2023-04-07T08:59:15.352Z,12.00
2023-04-07T09:01:43.793Z,12.23
2023-04-07T09:04:11.908Z,12.00
2023-04-07T09:06:38.768Z,11.17
2023-04-07T09:09:07.746Z,11.80
2023-04-07T09:11:38.835Z,11.27
2023-04-07T09:16:49.996Z,12.33
2023-04-07T09:19:16.855Z,11.47
2023-04-07T09:21:49.977Z,12.10
2023-04-07T09:24:25.322Z,12.80
2023-04-07T09:27:17.021Z,11.97
2023-04-07T09:29:46.223Z,12.77
2023-04-07T09:32:14.106Z,12.20
2023-04-07T09:34:41.565Z,13.30
2023-04-07T09:37:11.387Z,12.70
2023-04-07T09:39:48.746Z,12.87
2023-04-07T09:42:15.473Z,12.17
2023-04-07T09:44:42.210Z,12.87
2023-04-07T09:47:10.453Z,12.73
2023-04-07T09:49:48.806Z,12.47
2023-04-07T09:52:18.467Z,12.97
2023-04-07T09:54:45.826Z,12.13
2023-04-07T09:57:13.838Z,12.40
2023-04-07T09:59:42.666Z,12.60
2023-04-07T10:02:10.531Z,12.03
2023-04-07T10:04:37.728Z,12.30
2023-04-07T10:07:04.618Z,12.10
2023-04-07T10:09:31.731Z,11.13
2023-04-07T10:11:59.967Z,11.33
2023-04-07T10:14:27.405Z,11.00
2023-04-07T10:16:54.981Z,11.27
2023-04-07T10:19:23.014Z,11.47
2023-04-07T10:21:51.962Z,11.50
2023-04-07T10:24:33.690Z,10.60
2023-04-07T10:27:05.011Z,10.67
2023-04-07T10:29:31.919Z,11.23
2023-04-07T10:31:59.676Z,10.70
2023-04-07T10:34:46.375Z,10.33
2023-04-07T10:37:14.453Z,10.40
2023-04-07T10:39:41.257Z,10.13
2023-04-07T10:42:07.920Z,10.03
2023-04-07T10:44:43.597Z,11.13
2023-04-07T10:47:10.290Z,10.33
2023-04-07T10:49:38.082Z,10.50
2023-04-07T10:52:11.580Z,10.37
2023-04-07T10:54:41.563Z,10.60
2023-04-07T10:57:10.258Z,10.90
2023-04-07T10:59:37.432Z,10.37
2023-04-07T11:02:17.784Z,10.27
2023-04-07T11:04:45.462Z,10.47
2023-04-07T11:07:13.098Z,9.90
2023-04-07T11:09:44.485Z,10.40
2023-04-07T11:12:24.424Z,10.57
2023-04-07T11:14:51.319Z,10.30
2023-04-07T11:17:18.356Z,9.97
2023-04-07T11:19:54.291Z,9.60
2023-04-07T11:22:30.042Z,9.70
2023-04-07T11:24:58.950Z,9.97
2023-04-07T11:27:25.679Z,9.80
2023-04-07T11:29:54.751Z,10.10
2023-04-07T11:32:30.019Z,9.70
2023-04-07T11:34:57.657Z,9.63
2023-04-07T11:37:25.139Z,8.63
2023-04-07T11:39:55.647Z,8.93
2023-04-07T11:42:34.449Z,8.47
2023-04-07T11:45:01.522Z,9.27
2023-04-07T11:47:37.540Z,8.87
2023-04-07T11:50:05.086Z,8.33
2023-04-07T11:52:47.836Z,8.27
2023-04-07T11:55:20.843Z,8.80
2023-04-07T11:57:51.286Z,8.13
2023-04-07T12:00:18.689Z,7.70
2023-04-07T12:02:45.793Z,7.90
2023-04-07T12:05:12.788Z,8.43
2023-04-07T12:07:40.728Z,7.80
2023-04-07T12:10:23.030Z,8.30
2023-04-07T12:12:50.105Z,7.70
2023-04-07T12:15:16.850Z,7.33
2023-04-07T12:17:47.642Z,7.60
2023-04-07T12:20:15.966Z,8.00
2023-04-07T12:22:42.580Z,7.53
2023-04-07T12:25:09.280Z,7.90
2023-04-07T12:27:42.852Z,7.57
2023-04-07T12:30:10.373Z,7.77
2023-04-07T12:32:37.965Z,7.57
2023-04-07T12:35:05.403Z,7.53
2023-04-07T12:37:34.236Z,6.60
2023-04-07T12:40:00.926Z,7.17
2023-04-07T12:42:28.066Z,7.53
2023-04-07T12:44:54.717Z,6.87
2023-04-07T12:47:21.322Z,7.03
2023-04-07T12:49:49.884Z,7.23
2023-04-07T12:52:16.981Z,6.50
2023-04-07T12:54:44.552Z,6.77
2023-04-07T12:57:12.492Z,7.23
2023-04-07T12:59:39.139Z,7.20
2023-04-07T13:02:06.386Z,7.10
2023-04-07T13:04:33.420Z,6.63
2023-04-07T13:07:01.119Z,6.43
2023-04-07T13:09:27.798Z,6.43
2023-04-07T13:11:54.330Z,7.00
2023-04-07T13:14:20.927Z,6.63
2023-04-07T13:16:47.645Z,7.30
2023-04-07T13:19:14.243Z,6.20
2023-04-07T13:21:46.577Z,7.67
2023-04-07T13:24:14.318Z,5.43
2023-04-07T13:26:40.855Z,7.33
2023-04-07T13:29:07.459Z,10.60
2023-04-07T13:31:34.182Z,7.97
2023-04-07T13:34:00.954Z,7.07
2023-04-07T13:36:29.009Z,6.03
2023-04-07T13:38:57.132Z,6.37
2023-04-07T13:41:23.702Z,6.10
2023-04-07T13:43:50.756Z,5.70
2023-04-07T13:46:27.785Z,7.10
2023-04-07T13:48:57.535Z,6.53
2023-04-07T13:51:24.819Z,7.10
2023-04-07T13:53:52.028Z,6.80
2023-04-07T13:56:18.839Z,7.20
2023-04-07T13:58:47.678Z,7.23
2023-04-07T14:01:14.805Z,7.40
2023-04-07T14:03:43.305Z,6.83
2023-04-07T14:06:10.075Z,6.87
2023-04-07T14:08:36.928Z,6.30
2023-04-07T14:11:03.928Z,6.30
2023-04-07T14:13:30.793Z,5.93
2023-04-07T14:15:57.581Z,7.40
2023-04-07T14:18:24.774Z,7.07
2023-04-07T14:20:51.765Z,16.37
2023-04-07T14:23:30.100Z,9.00
2023-04-07T14:26:03.169Z,6.83
2023-04-07T14:28:29.780Z,11.33
2023-04-07T14:30:56.477Z,9.90
2023-04-07T14:33:23.139Z,10.77
2023-04-07T14:35:50.260Z,11.50
2023-04-07T14:38:17.436Z,18.80
2023-04-07T14:40:45.683Z,12.57
2023-04-07T14:43:12.457Z,10.57
2023-04-07T14:45:39.833Z,12.10
2023-04-07T14:48:06.945Z,14.10
2023-04-07T14:50:33.980Z,6.97
2023-04-07T14:53:00.881Z,10.13
2023-04-07T14:55:28.337Z,12.60
2023-04-07T14:57:57.686Z,19.13
2023-04-07T15:00:26.259Z,23.80
2023-04-07T15:02:54.429Z,14.40
2023-04-07T15:05:26.105Z,14.30
2023-04-07T15:07:53.009Z,8.30
2023-04-07T15:10:21.483Z,14.57
2023-04-07T15:12:48.936Z,7.13
2023-04-07T15:15:15.947Z,7.90
2023-04-07T15:17:44.919Z,10.63
2023-04-07T15:20:14.154Z,11.57
2023-04-07T15:22:45.679Z,11.77
2023-04-07T15:25:12.428Z,12.13
2023-04-07T15:27:42.336Z,11.23
2023-04-07T15:30:11.576Z,9.47
2023-04-07T15:32:38.213Z,8.83
2023-04-07T15:35:05.093Z,10.80
2023-04-07T15:37:32.149Z,18.93
2023-04-07T15:39:58.780Z,26.27
2023-04-07T15:42:25.412Z,13.37
2023-04-07T15:44:52.035Z,9.90
2023-04-07T15:47:18.550Z,11.17
2023-04-07T15:49:45.242Z,12.60
2023-04-07T15:52:13.688Z,9.80
2023-04-07T15:54:40.432Z,11.60
2023-04-07T15:57:07.343Z,10.87
2023-04-07T15:59:36.105Z,10.47
2023-04-07T16:02:03.068Z,10.53
2023-04-07T16:04:30.334Z,11.00
2023-04-07T16:06:57.012Z,10.73
2023-04-07T16:09:24.468Z,9.30
2023-04-07T16:11:51.111Z,10.53
2023-04-07T16:14:17.785Z,8.67
2023-04-07T16:16:44.755Z,11.53
2023-04-07T16:19:11.690Z,11.83
2023-04-07T16:21:40.820Z,9.67
2023-04-07T16:24:07.617Z,8.60
2023-04-07T16:26:36.774Z,8.50
2023-04-07T16:29:05.210Z,7.20
2023-04-07T16:31:32.442Z,7.17
2023-04-07T16:33:59.404Z,7.73
2023-04-07T16:36:26.866Z,7.87
2023-04-07T16:38:54.044Z,7.47
2023-04-07T16:41:21.624Z,9.30
2023-04-07T16:43:50.086Z,8.43
2023-04-07T16:46:17.221Z,8.00
2023-04-07T16:48:44.172Z,8.40
2023-04-07T16:51:11.007Z,8.30
2023-04-07T16:53:37.860Z,8.37
2023-04-07T16:56:04.649Z,9.23
2023-04-07T16:58:37.148Z,9.40
2023-04-07T17:01:03.981Z,9.40
2023-04-07T17:03:31.099Z,8.40
2023-04-07T17:06:05.629Z,8.83
2023-04-07T17:08:32.826Z,9.50
2023-04-07T17:10:59.546Z,8.03
2023-04-07T17:13:29.314Z,9.03
2023-04-07T17:15:56.359Z,8.43
2023-04-07T17:18:23.615Z,8.70
2023-04-07T17:20:53.945Z,9.00
2023-04-07T17:23:21.756Z,9.90
2023-04-07T17:25:49.049Z,9.77
2023-04-07T17:28:15.833Z,8.93
2023-04-07T17:30:42.626Z,10.50
2023-04-07T17:33:09.397Z,9.37
2023-04-07T17:35:36.315Z,9.37
2023-04-07T17:38:03.260Z,10.27
2023-04-07T17:40:30.314Z,11.13
2023-04-07T17:42:58.243Z,9.50
2023-04-07T17:45:25.047Z,10.13
2023-04-07T17:47:52.503Z,11.53
2023-04-07T17:50:20.159Z,10.90
2023-04-07T17:52:47.009Z,10.57
2023-04-07T17:55:13.708Z,10.30
2023-04-07T17:57:42.906Z,9.43
2023-04-07T18:00:09.816Z,10.13
2023-04-07T18:02:42.340Z,9.63
2023-04-07T18:05:09.794Z,9.90
2023-04-07T18:07:36.554Z,10.00
2023-04-07T18:10:04.909Z,9.40
2023-04-07T18:12:33.220Z,9.43
2023-04-07T18:14:59.786Z,10.53
2023-04-07T18:17:26.383Z,9.90
2023-04-07T18:19:58.752Z,10.80
2023-04-07T18:22:28.687Z,10.23
2023-04-07T18:24:55.844Z,9.90
2023-04-07T18:27:26.640Z,9.47
2023-04-07T18:29:53.317Z,9.47
2023-04-07T18:32:19.868Z,10.73
2023-04-07T18:34:47.203Z,9.67
2023-04-07T18:37:13.996Z,10.27
2023-04-07T18:39:42.252Z,9.83
2023-04-07T18:42:09.017Z,11.40
2023-04-07T18:44:35.649Z,9.80
2023-04-07T18:47:02.308Z,10.77
2023-04-07T18:49:30.113Z,11.40
2023-04-07T18:51:56.916Z,11.30
2023-04-07T18:54:27.110Z,13.40
2023-04-07T18:56:53.940Z,17.03
2023-04-07T18:59:20.827Z,13.83
2023-04-07T19:01:47.675Z,9.97
2023-04-07T19:04:15.745Z,10.07
2023-04-07T19:06:42.429Z,11.37
2023-04-07T19:09:09.084Z,9.60
2023-04-07T19:11:37.408Z,10.03
2023-04-07T19:14:05.912Z,10.20
2023-04-07T19:16:33.737Z,9.47
2023-04-07T19:19:00.568Z,8.53
2023-04-07T19:21:27.802Z,9.23
2023-04-07T19:23:56.246Z,8.10
2023-04-07T19:26:23.098Z,11.33
2023-04-07T19:28:49.950Z,9.07
2023-04-07T19:31:16.749Z,9.03
2023-04-07T19:33:44.150Z,8.80
2023-04-07T19:36:11.158Z,9.83
2023-04-07T19:38:37.841Z,9.30
2023-04-07T19:41:04.568Z,8.67
2023-04-07T19:43:31.504Z,17.70
2023-04-07T19:45:58.194Z,11.20
2023-04-07T19:48:26.658Z,14.13
2023-04-07T19:50:53.485Z,9.53
2023-04-07T19:53:20.165Z,20.10
2023-04-07T19:55:47.021Z,14.90
2023-04-07T19:58:13.593Z,10.33
2023-04-07T20:00:41.631Z,11.17
2023-04-07T20:03:08.572Z,10.10
2023-04-07T20:05:37.265Z,9.93
2023-04-07T20:08:04.111Z,10.33
2023-04-07T20:10:30.896Z,13.87
2023-04-07T20:12:57.672Z,9.57
2023-04-07T20:15:27.434Z,8.93
2023-04-07T20:17:55.415Z,8.80
2023-04-07T20:20:23.665Z,11.47
2023-04-07T20:22:51.082Z,11.33
2023-04-07T20:25:19.759Z,11.13
2023-04-07T20:27:49.350Z,11.23
2023-04-07T20:30:16.558Z,10.93
2023-04-07T20:32:43.669Z,12.77
2023-04-07T20:35:12.057Z,15.33
2023-04-07T20:37:39.247Z,13.53
2023-04-07T20:40:07.424Z,10.67
2023-04-07T20:42:34.732Z,11.60
2023-04-07T20:45:04.391Z,11.17
2023-04-07T20:47:36.079Z,10.90
2023-04-07T20:50:04.649Z,9.40
2023-04-07T20:52:31.658Z,10.43
2023-04-07T20:54:58.854Z,11.47
2023-04-07T20:57:26.796Z,10.80
2023-04-07T20:59:53.874Z,9.87
2023-04-07T21:02:21.626Z,10.10
2023-04-07T21:04:48.327Z,10.50
2023-04-07T21:07:15.179Z,10.53
2023-04-07T21:09:41.917Z,10.97
2023-04-07T21:12:10.162Z,11.73
2023-04-07T21:14:39.612Z,13.13
2023-04-07T21:17:08.895Z,12.40
2023-04-07T21:19:35.909Z,10.20
2023-04-07T21:22:05.235Z,9.60
2023-04-07T21:24:33.088Z,10.30
2023-04-07T21:26:59.768Z,10.77
2023-04-07T21:29:29.119Z,9.70
2023-04-07T21:32:00.796Z,10.37
2023-04-07T21:34:27.490Z,9.17
2023-04-07T21:36:54.248Z,9.17
2023-04-07T21:39:20.968Z,9.33
2023-04-07T21:41:47.849Z,8.50
2023-04-07T21:44:21.568Z,9.23
2023-04-07T21:46:49.312Z,10.07
2023-04-07T21:49:18.204Z,10.73
2023-04-07T21:51:47.464Z,8.97
2023-04-07T21:54:14.088Z,9.43
2023-04-07T21:56:40.873Z,8.67
2023-04-07T21:59:09.334Z,9.07
2023-04-07T22:01:37.714Z,9.57
2023-04-07T22:04:04.493Z,9.83
2023-04-07T22:06:31.590Z,11.67
2023-04-07T22:09:01.208Z,10.20
2023-04-07T22:11:31.442Z,11.00
2023-04-07T22:13:58.031Z,9.77
2023-04-07T22:16:24.687Z,10.00
2023-04-07T22:18:51.446Z,10.83
2023-04-07T22:21:18.099Z,9.87
2023-04-07T22:23:44.761Z,10.20
2023-04-07T22:26:11.588Z,10.50
2023-04-07T22:28:38.291Z,9.57
2023-04-07T22:31:05.088Z,9.47
2023-04-07T22:33:31.863Z,10.23
2023-04-07T22:35:58.536Z,10.83
2023-04-07T22:38:25.426Z,10.50
2023-04-07T22:40:53.221Z,10.57
2023-04-07T22:43:19.834Z,10.27
2023-04-07T22:45:46.479Z,10.47
2023-04-07T22:48:13.858Z,10.10
2023-04-07T22:50:40.847Z,11.10
2023-04-07T22:53:08.092Z,10.90
2023-04-07T22:55:35.020Z,10.90
2023-04-07T22:58:01.794Z,11.57
2023-04-07T23:00:28.475Z,10.83
2023-04-07T23:02:55.391Z,10.87
2023-04-07T23:05:22.144Z,11.00
2023-04-07T23:07:48.726Z,10.77
2023-04-07T23:10:16.259Z,10.87
2023-04-07T23:12:42.840Z,13.60
2023-04-07T23:15:09.692Z,11.50
2023-04-07T23:17:36.875Z,10.27
2023-04-07T23:20:03.725Z,11.00
2023-04-07T23:22:30.310Z,9.80
2023-04-07T23:24:57.150Z,11.43
2023-04-07T23:27:23.805Z,13.50
2023-04-07T23:29:51.501Z,12.23
2023-04-07T23:32:18.533Z,11.70
2023-04-07T23:34:45.695Z,12.17
2023-04-07T23:37:12.249Z,11.60
2023-04-07T23:39:39.289Z,11.17
2023-04-07T23:42:05.825Z,11.83
2023-04-07T23:44:33.110Z,11.83
2023-04-07T23:46:59.771Z,12.30
2023-04-07T23:49:28.087Z,13.80
2023-04-07T23:51:54.849Z,13.67
2023-04-07T23:54:21.547Z,15.87
2023-04-07T23:56:48.269Z,14.00
2023-04-07T23:59:14.837Z,14.70
